Time;durP1;ratioP1;P1;durP2;ratioP2;P2;SDS_P1;SDS_P2;PMS_P1;PMS_P2;Temp;Humidity;BMP_temperature;BMP_pressure;BME280_temperature;BME280_humidity;BME280_pressure;Samples;Min_cycle;Max_cycle;Signal;HPM_P1;HPM_P2
2023/08/10 00:00:30;;;;;;;4.75;2.90;;;15.40;79.90;;;;;;4998369;28;20060;-72
2023/08/10 00:02:56;;;;;;;6.65;2.70;;;15.50;80.10;;;;;;4998240;28;20129;-73
2023/08/10 00:05:21;;;;;;;4.15;2.13;;;15.40;80.10;;;;;;5015580;28;20046;-73
2023/08/10 00:07:47;;;;;;;5.22;2.63;;;15.50;80.30;;;;;;5015695;28;20026;-72
2023/08/10 00:10:12;;;;;;;2.97;2.67;;;15.50;80.20;;;;;;5015545;28;20025;-71
2023/08/10 00:12:38;;;;;;;6.18;2.60;;;15.50;80.00;;;;;;5015736;28;20438;-72
2023/08/10 00:15:08;;;;;;;4.63;2.63;;;15.60;79.80;;;;;;4997958;28;20092;-72
2023/08/10 00:17:33;;;;;;;3.17;2.00;;;15.70;79.70;;;;;;4998125;28;20060;-73
2023/08/10 00:19:59;;;;;;;2.97;2.45;;;15.70;79.70;;;;;;4998103;28;20463;-73
2023/08/10 00:22:25;;;;;;;3.85;2.70;;;15.70;79.70;;;;;;5014776;28;20037;-71
2023/08/10 00:24:50;;;;;;;4.15;2.80;;;15.70;79.70;;;;;;5015520;28;20383;-72
2023/08/10 00:27:16;;;;;;;5.13;2.50;;;15.60;79.70;;;;;;5015408;28;20045;-72
2023/08/10 00:29:41;;;;;;;5.13;2.65;;;15.60;79.70;;;;;;5015243;28;20030;-72
2023/08/10 00:32:07;;;;;;;4.57;2.15;;;15.70;79.80;;;;;;5015372;28;20462;-73
2023/08/10 00:34:32;;;;;;;3.13;2.30;;;15.70;79.60;;;;;;5015343;28;20038;-73
2023/08/10 00:36:58;;;;;;;3.85;2.70;;;15.70;79.50;;;;;;5015279;28;20030;-73
2023/08/10 00:39:23;;;;;;;4.07;2.53;;;15.90;79.50;;;;;;5015269;28;20037;-72
2023/08/10 00:41:49;;;;;;;3.33;2.22;;;15.90;79.40;;;;;;5015165;28;20034;-73
2023/08/10 00:44:16;;;;;;;3.97;2.70;;;15.80;79.30;;;;;;5015056;28;20018;-72
2023/08/10 00:46:42;;;;;;;4.10;2.45;;;15.90;79.20;;;;;;5015110;28;20026;-74
2023/08/10 00:49:08;;;;;;;2.70;2.22;;;15.90;79.10;;;;;;5014940;28;20442;-73
2023/08/10 00:51:33;;;;;;;2.97;2.00;;;16.00;79.00;;;;;;4997466;28;20025;-73
2023/08/10 00:54:00;;;;;;;3.03;2.28;;;16.00;78.90;;;;;;4997061;28;20064;-74
2023/08/10 00:56:26;;;;;;;3.72;2.28;;;16.00;78.90;;;;;;5015013;28;20081;-74
2023/08/10 00:58:52;;;;;;;3.03;2.25;;;16.00;78.80;;;;;;5014855;28;20114;-73
2023/08/10 01:01:18;;;;;;;4.13;2.42;;;16.00;78.80;;;;;;4997574;28;20105;-72
2023/08/10 01:03:43;;;;;;;2.83;2.22;;;16.10;78.90;;;;;;5014713;28;20114;-72
2023/08/10 01:06:24;;;;;;;5.15;2.58;;;16.00;78.50;;;;;;5014559;28;20049;-73
2023/08/10 01:09:03;;;;;;;4.78;3.15;;;16.00;78.60;;;;;;5014557;28;20483;-72
2023/08/10 01:11:48;;;;;;;9.35;2.92;;;15.90;79.30;;;;;;5014532;28;20538;-72
2023/08/10 01:14:25;;;;;;;4.23;2.97;;;15.80;79.70;;;;;;5014626;28;20105;-72
2023/08/10 01:16:55;;;;;;;3.20;2.75;;;15.80;79.80;;;;;;5014305;28;20022;-72
2023/08/10 01:19:32;;;;;;;4.50;3.08;;;15.70;80.00;;;;;;5014247;28;20372;-73
2023/08/10 01:22:13;;;;;;;3.17;2.67;;;15.70;80.20;;;;;;5014510;28;20022;-72
2023/08/10 01:24:43;;;;;;;3.70;2.60;;;15.80;80.10;;;;;;5014435;28;20030;-72
2023/08/10 01:27:13;;;;;;;4.78;2.47;;;15.80;79.90;;;;;;5014325;28;20030;-72
2023/08/10 01:29:40;;;;;;;3.65;2.20;;;15.90;80.00;;;;;;5014056;28;20041;-72
2023/08/10 01:32:12;;;;;;;3.80;2.47;;;15.90;80.10;;;;;;4996895;28;20033;-73
2023/08/10 01:34:38;;;;;;;3.97;2.53;;;15.90;80.10;;;;;;4996746;28;20029;-72
2023/08/10 01:37:04;;;;;;;4.40;2.55;;;15.90;80.20;;;;;;5014121;28;20176;-72
2023/08/10 01:39:32;;;;;;;4.07;2.58;;;15.90;80.20;;;;;;5013804;28;20080;-72
2023/08/10 01:41:57;;;;;;;4.32;2.60;;;16.00;80.20;;;;;;5014106;28;20017;-72
2023/08/10 01:44:23;;;;;;;3.10;2.25;;;16.00;80.20;;;;;;5013511;28;20037;-72
2023/08/10 01:46:50;;;;;;;2.35;2.15;;;15.90;80.20;;;;;;5013911;28;20475;-72
2023/08/10 01:49:18;;;;;;;2.80;2.20;;;15.90;80.10;;;;;;5013974;28;20475;-73
2023/08/10 01:51:45;;;;;;;4.38;2.67;;;15.90;80.20;;;;;;5014062;28;20018;-74
2023/08/10 01:54:12;;;;;;;4.05;2.67;;;15.90;80.30;;;;;;5013920;28;20034;-72
2023/08/10 01:56:37;;;;;;;3.30;2.28;;;15.90;80.20;;;;;;5013907;28;20026;-72
2023/08/10 01:59:03;;;;;;;3.72;2.33;;;15.90;80.10;;;;;;5013720;28;20029;-73
2023/08/10 02:01:29;;;;;;;3.60;2.33;;;15.90;80.10;;;;;;5013669;28;20092;-72
2023/08/10 02:03:54;;;;;;;5.32;2.60;;;15.90;80.20;;;;;;5013612;28;20030;-73
2023/08/10 02:06:20;;;;;;;2.63;2.20;;;15.90;80.30;;;;;;5013429;28;20053;-72
2023/08/10 02:08:45;;;;;;;3.50;2.35;;;15.90;80.30;;;;;;5013616;28;20044;-72
2023/08/10 02:11:11;;;;;;;3.08;2.30;;;15.90;80.30;;;;;;5013599;28;20064;-73
2023/08/10 02:13:36;;;;;;;3.67;2.42;;;15.90;80.30;;;;;;5013794;28;20037;-74
2023/08/10 02:16:03;;;;;;;5.07;2.40;;;15.90;80.40;;;;;;4995612;28;20028;-73
2023/08/10 02:18:28;;;;;;;3.78;2.40;;;15.90;80.30;;;;;;5013539;28;20018;-72
2023/08/10 02:20:54;;;;;;;2.95;2.40;;;16.00;80.20;;;;;;5013429;28;20119;-73
2023/08/10 02:23:20;;;;;;;4.43;2.53;;;16.00;80.10;;;;;;4995848;28;20489;-73
2023/08/10 02:25:45;;;;;;;4.28;2.22;;;16.00;80.00;;;;;;5013510;28;20058;-72
2023/08/10 02:28:11;;;;;;;2.67;2.05;;;16.00;80.00;;;;;;5013356;28;20029;-71
2023/08/10 02:30:38;;;;;;;5.22;2.10;;;16.00;80.00;;;;;;5013286;28;20037;-72
2023/08/10 02:33:04;;;;;;;4.65;2.58;;;16.00;79.90;;;;;;5013389;28;20049;-73
2023/08/10 02:35:30;;;;;;;3.30;2.40;;;16.00;79.90;;;;;;5013348;28;20040;-72
2023/08/10 02:37:55;;;;;;;2.30;2.10;;;16.10;79.90;;;;;;5013219;28;20378;-73
2023/08/10 02:40:21;;;;;;;4.78;3.00;;;16.00;79.80;;;;;;5013226;28;20030;-73
2023/08/10 02:42:47;;;;;;;4.88;2.55;;;16.00;79.80;;;;;;5013355;28;20025;-72
2023/08/10 02:45:13;;;;;;;4.60;2.50;;;16.00;79.80;;;;;;5016854;28;20450;-72
2023/08/10 02:47:38;;;;;;;4.55;2.22;;;16.00;79.80;;;;;;5019659;28;20026;-71
2023/08/10 02:50:09;;;;;;;3.67;2.95;;;15.90;80.00;;;;;;5019592;28;20084;-72
2023/08/10 02:52:34;;;;;;;4.45;2.65;;;15.80;80.00;;;;;;5011732;28;20374;-73
2023/08/10 02:55:00;;;;;;;5.20;2.92;;;15.80;80.30;;;;;;5019771;28;20018;-72
2023/08/10 02:57:26;;;;;;;3.78;2.50;;;15.70;80.50;;;;;;5019441;28;20409;-71
2023/08/10 02:59:51;;;;;;;2.92;2.55;;;15.70;80.70;;;;;;5019768;28;20033;-71
2023/08/10 03:02:17;;;;;;;3.28;2.53;;;15.60;80.60;;;;;;5019624;28;20033;-73
2023/08/10 03:04:43;;;;;;;4.68;2.80;;;15.60;80.80;;;;;;5019635;28;20049;-71
2023/08/10 03:07:09;;;;;;;3.47;2.60;;;15.50;81.00;;;;;;5019500;28;20585;-72
2023/08/10 03:09:34;;;;;;;2.65;2.30;;;15.50;81.40;;;;;;5019510;28;20117;-71
2023/08/10 03:12:00;;;;;;;3.53;2.47;;;15.40;81.50;;;;;;5019370;28;20049;-71
2023/08/10 03:14:25;;;;;;;2.92;2.67;;;15.40;81.60;;;;;;5019408;28;20475;-72
2023/08/10 03:16:51;;;;;;;3.22;2.50;;;15.30;81.50;;;;;;5019373;28;20077;-71
2023/08/10 03:19:17;;;;;;;3.17;2.50;;;15.30;81.70;;;;;;5019483;28;20068;-71
2023/08/10 03:21:42;;;;;;;4.50;2.50;;;15.30;81.80;;;;;;5001812;28;20022;-70
2023/08/10 03:24:08;;;;;;;3.55;2.70;;;15.30;82.00;;;;;;5019429;28;20037;-71
2023/08/10 03:26:33;;;;;;;3.20;2.90;;;15.20;81.80;;;;;;5019317;28;20069;-71
2023/08/10 03:28:59;;;;;;;8.82;3.60;;;15.20;82.00;;;;;;5019301;28;20046;-71
2023/08/10 03:31:24;;;;;;;3.28;2.45;;;15.10;82.30;;;;;;5001731;28;20467;-71
2023/08/10 03:33:50;;;;;;;3.90;3.10;;;14.90;82.80;;;;;;5019441;28;20542;-72
2023/08/10 03:36:16;;;;;;;4.53;3.22;;;14.90;83.00;;;;;;5019326;28;20467;-71
2023/08/10 03:38:41;;;;;;;4.68;3.20;;;14.80;83.40;;;;;;5019458;28;20049;-74
2023/08/10 03:41:07;;;;;;;5.70;3.17;;;14.80;83.60;;;;;;5019339;28;20045;-74
2023/08/10 03:43:32;;;;;;;4.82;2.92;;;14.70;83.80;;;;;;5001700;28;20030;-72
2023/08/10 03:45:58;;;;;;;3.08;2.78;;;14.80;83.80;;;;;;5019256;28;20123;-71
2023/08/10 03:48:23;;;;;;;3.65;3.10;;;14.70;83.90;;;;;;5024927;28;20033;-72
2023/08/10 03:50:49;;;;;;;4.00;3.00;;;14.70;84.00;;;;;;5020293;28;20445;-72
2023/08/10 03:53:15;;;;;;;3.92;2.75;;;14.70;84.10;;;;;;5021930;28;20434;-72
2023/08/10 03:55:41;;;;;;;3.17;2.88;;;14.60;84.20;;;;;;5000455;28;20065;-72
2023/08/10 03:58:06;;;;;;;5.57;3.00;;;14.60;84.40;;;;;;5015246;28;20022;-72
2023/08/10 04:00:32;;;;;;;4.20;2.75;;;14.60;84.50;;;;;;5015999;28;20390;-71
2023/08/10 04:02:57;;;;;;;3.33;2.88;;;14.60;84.30;;;;;;5015920;28;20382;-72
2023/08/10 04:05:23;;;;;;;5.30;3.10;;;14.50;84.50;;;;;;5015816;28;20050;-72
2023/08/10 04:07:48;;;;;;;4.47;2.75;;;14.50;84.60;;;;;;5015711;28;20033;-71
2023/08/10 04:10:14;;;;;;;3.65;2.95;;;14.50;84.80;;;;;;5015687;28;20038;-72
2023/08/10 04:12:40;;;;;;;5.00;2.90;;;14.50;84.80;;;;;;5015751;28;20053;-71
2023/08/10 04:15:06;;;;;;;4.63;3.20;;;14.40;84.50;;;;;;5015789;28;20029;-71
2023/08/10 04:17:32;;;;;;;3.55;2.85;;;14.40;84.70;;;;;;5015592;28;20049;-72
2023/08/10 04:19:58;;;;;;;4.72;3.20;;;14.30;84.60;;;;;;5015719;28;20066;-72
2023/08/10 04:22:24;;;;;;;2.75;2.50;;;14.30;84.70;;;;;;5015577;28;20030;-72
2023/08/10 04:24:50;;;;;;;3.47;3.15;;;14.30;84.70;;;;;;5015598;28;20025;-72
2023/08/10 04:27:19;;;;;;;4.35;2.80;;;14.20;84.80;;;;;;4997809;28;20116;-73
2023/08/10 04:29:45;;;;;;;3.92;3.17;;;14.30;85.00;;;;;;5015529;28;20034;-72
2023/08/10 04:32:12;;;;;;;4.82;3.05;;;14.40;84.90;;;;;;5015483;28;20024;-73
2023/08/10 04:34:38;;;;;;;2.95;2.55;;;14.40;84.70;;;;;;5015378;28;20036;-72
2023/08/10 04:37:04;;;;;;;3.05;2.75;;;14.50;84.50;;;;;;5015407;28;20537;-73
2023/08/10 04:39:29;;;;;;;4.63;2.85;;;14.50;84.30;;;;;;5015330;28;20030;-72
2023/08/10 04:41:55;;;;;;;5.15;3.20;;;14.60;84.00;;;;;;5015206;28;20028;-71
2023/08/10 04:44:20;;;;;;;4.25;2.95;;;14.60;83.40;;;;;;5015252;28;20109;-72
2023/08/10 04:46:46;;;;;;;3.83;2.95;;;14.60;82.90;;;;;;5015374;28;20028;-73
2023/08/10 04:49:12;;;;;;;3.88;2.88;;;14.50;83.00;;;;;;5015088;28;20077;-72
2023/08/10 04:51:37;;;;;;;3.95;2.97;;;14.50;83.20;;;;;;5015083;28;20026;-72
2023/08/10 04:54:03;;;;;;;3.67;2.55;;;14.50;83.50;;;;;;4996821;28;20036;-72
2023/08/10 04:56:29;;;;;;;3.88;2.80;;;14.50;83.60;;;;;;5014633;28;20030;-73
2023/08/10 04:58:54;;;;;;;3.75;2.80;;;14.50;83.10;;;;;;5014834;28;20030;-72
2023/08/10 05:01:20;;;;;;;2.72;2.50;;;14.60;82.90;;;;;;5014950;28;20466;-72
2023/08/10 05:03:46;;;;;;;3.40;2.70;;;14.70;82.70;;;;;;5014692;28;20498;-72
2023/08/10 05:06:12;;;;;;;3.88;2.80;;;14.70;82.30;;;;;;5014748;28;20466;-72
2023/08/10 05:08:37;;;;;;;3.95;2.80;;;14.70;81.90;;;;;;5014450;28;20042;-72
2023/08/10 05:11:03;;;;;;;4.63;2.83;;;14.80;81.90;;;;;;5014743;28;20053;-71
2023/08/10 05:13:29;;;;;;;3.88;3.10;;;14.80;81.50;;;;;;5014478;28;20030;-74
2023/08/10 05:15:55;;;;;;;3.70;2.95;;;14.80;81.50;;;;;;5014760;28;20080;-73
2023/08/10 05:18:23;;;;;;;4.13;3.30;;;14.70;81.80;;;;;;5014814;28;20085;-72
2023/08/10 05:20:49;;;;;;;6.25;3.35;;;14.70;81.80;;;;;;5014721;28;20386;-72
2023/08/10 05:23:15;;;;;;;3.67;2.83;;;14.80;81.70;;;;;;5014405;28;20106;-71
2023/08/10 05:25:41;;;;;;;5.55;3.13;;;14.80;81.50;;;;;;5014422;28;20100;-71
2023/08/10 05:28:06;;;;;;;4.28;2.83;;;14.90;81.30;;;;;;5014296;28;20113;-71
2023/08/10 05:30:32;;;;;;;4.03;2.92;;;14.90;81.40;;;;;;4996594;28;20057;-72
2023/08/10 05:32:58;;;;;;;4.50;3.38;;;14.90;81.20;;;;;;5014087;28;20022;-72
2023/08/10 05:35:23;;;;;;;3.25;2.95;;;15.00;81.00;;;;;;5025395;28;20029;-72
2023/08/10 05:37:49;;;;;;;6.72;3.47;;;15.00;81.10;;;;;;5034081;28;20044;-73
2023/08/10 05:40:14;;;;;;;5.85;2.60;;;15.00;81.00;;;;;;5038259;28;20109;-72
2023/08/10 05:42:41;;;;;;;6.68;3.20;;;15.10;81.00;;;;;;5041067;28;20024;-73
2023/08/10 05:45:08;;;;;;;4.55;3.00;;;15.10;81.20;;;;;;5034851;28;20480;-72
2023/08/10 05:47:35;;;;;;;4.90;3.38;;;15.10;81.20;;;;;;5016381;28;20103;-73
2023/08/10 05:50:01;;;;;;;3.63;3.25;;;15.20;80.90;;;;;;5033763;28;20041;-72
2023/08/10 05:52:27;;;;;;;4.32;3.03;;;15.30;80.80;;;;;;5032990;28;20053;-72
2023/08/10 05:54:53;;;;;;;4.28;2.70;;;15.40;80.50;;;;;;5033840;28;20049;-72
2023/08/10 05:57:19;;;;;;;3.92;3.00;;;15.50;80.20;;;;;;5033734;28;20105;-72
2023/08/10 05:59:45;;;;;;;3.20;2.70;;;15.60;80.10;;;;;;5033615;28;20018;-72
2023/08/10 06:02:10;;;;;;;4.45;2.88;;;15.60;79.70;;;;;;5033567;28;20052;-72
2023/08/10 06:04:36;;;;;;;4.35;2.60;;;15.70;79.80;;;;;;5033479;28;20540;-72
2023/08/10 06:07:02;;;;;;;3.95;2.90;;;15.80;79.50;;;;;;5033477;28;20051;-73
2023/08/10 06:09:28;;;;;;;3.05;2.60;;;15.90;79.20;;;;;;5033369;28;20471;-73
2023/08/10 06:11:54;;;;;;;4.50;2.88;;;15.90;78.90;;;;;;5033707;28;20018;-72
2023/08/10 06:14:20;;;;;;;5.97;2.80;;;16.10;78.70;;;;;;5033219;28;20029;-72
2023/08/10 06:16:46;;;;;;;4.35;2.55;;;16.30;78.20;;;;;;5033067;28;20033;-72
2023/08/10 06:19:11;;;;;;;2.92;2.35;;;16.40;77.90;;;;;;5032663;28;20470;-72
2023/08/10 06:21:37;;;;;;;3.30;2.50;;;16.60;77.50;;;;;;5033083;28;20395;-72
2023/08/10 06:24:06;;;;;;;4.35;2.72;;;16.70;77.40;;;;;;5033080;28;20027;-72
2023/08/10 06:26:33;;;;;;;4.10;2.78;;;16.90;76.80;;;;;;5033123;28;20029;-72
2023/08/10 06:28:59;;;;;;;3.70;2.67;;;17.00;76.10;;;;;;5032986;28;20036;-72
2023/08/10 06:31:25;;;;;;;2.65;2.33;;;17.10;75.90;;;;;;5033055;28;20417;-72
2023/08/10 06:33:50;;;;;;;4.72;2.83;;;17.20;75.50;;;;;;5033132;28;20116;-75
2023/08/10 06:36:16;;;;;;;3.63;2.53;;;17.40;75.20;;;;;;5033190;28;20030;-73
2023/08/10 06:38:41;;;;;;;2.80;2.22;;;17.40;74.40;;;;;;5015190;28;20036;-71
2023/08/10 06:41:07;;;;;;;2.40;2.20;;;17.60;74.40;;;;;;5032936;28;20033;-72
2023/08/10 06:43:32;;;;;;;5.25;2.50;;;17.70;74.10;;;;;;5015128;28;20084;-73
2023/08/10 06:45:59;;;;;;;3.80;2.33;;;17.80;73.40;;;;;;5032682;28;20105;-73
2023/08/10 06:48:24;;;;;;;2.45;2.10;;;17.90;73.00;;;;;;5032603;28;20104;-72
2023/08/10 06:50:50;;;;;;;6.78;2.58;;;17.80;72.90;;;;;;5032600;28;20112;-72
2023/08/10 06:53:15;;;;;;;4.20;2.40;;;17.80;73.10;;;;;;5032736;28;20052;-72
2023/08/10 06:55:42;;;;;;;3.22;2.53;;;17.70;73.50;;;;;;5032816;28;20038;-71
2023/08/10 06:58:08;;;;;;;3.17;2.45;;;17.70;74.40;;;;;;5032843;28;20025;-71
2023/08/10 07:00:35;;;;;;;3.30;2.30;;;17.70;74.80;;;;;;5036112;28;20474;-72
2023/08/10 07:03:02;;;;;;;9.98;2.60;;;17.70;74.80;;;;;;5032801;28;20026;-71
2023/08/10 07:05:28;;;;;;;3.50;2.53;;;17.70;75.00;;;;;;5032187;28;20049;-72
2023/08/10 07:07:55;;;;;;;3.35;2.80;;;17.80;75.00;;;;;;5032441;28;20082;-71
2023/08/10 07:10:20;;;;;;;3.08;2.38;;;18.00;74.10;;;;;;5032616;28;20036;-73
2023/08/10 07:12:46;;;;;;;5.97;2.83;;;18.20;73.60;;;;;;5032661;28;20018;-72
2023/08/10 07:15:12;;;;;;;12.15;3.42;;;18.30;72.40;;;;;;5014694;28;20029;-78
2023/08/10 07:17:38;;;;;;;10.00;3.03;;;18.50;71.50;;;;;;5014871;28;20045;-77
2023/08/10 07:20:05;;;;;;;4.93;2.63;;;18.70;70.90;;;;;;5015745;28;20018;-76
2023/08/10 07:22:34;;;;;;;3.47;2.05;;;18.90;69.80;;;;;;5016043;28;20371;-75
2023/08/10 07:25:05;;;;;;;4.95;2.30;;;19.20;68.40;;;;;;5013211;28;20120;-76
2023/08/10 07:27:34;;;;;;;2.63;1.98;;;19.40;67.40;;;;;;4987209;28;20037;-76
2023/08/10 07:30:01;;;;;;;3.05;2.17;;;19.70;66.70;;;;;;5016437;28;20435;-75
2023/08/10 07:32:27;;;;;;;2.67;1.90;;;19.80;65.80;;;;;;5002179;28;20028;-75
2023/08/10 07:34:53;;;;;;;7.15;2.28;;;20.00;65.40;;;;;;4999323;28;20048;-74
2023/08/10 07:37:19;;;;;;;7.70;2.90;;;20.20;65.00;;;;;;5002558;28;20022;-77
2023/08/10 07:39:44;;;;;;;6.07;2.60;;;20.30;64.40;;;;;;4984526;28;20036;-83
2023/08/10 07:42:12;;;;;;;4.18;2.70;;;20.40;63.30;;;;;;5001464;28;20112;-87
2023/08/10 07:44:38;;;;;;;3.95;2.10;;;20.40;63.80;;;;;;5006247;28;20482;-82
2023/08/10 07:47:06;;;;;;;4.53;2.40;;;20.30;64.40;;;;;;5001923;28;20033;-76
2023/08/10 07:49:32;;;;;;;3.47;2.20;;;20.30;64.10;;;;;;5004175;28;20056;-85
2023/08/10 07:51:58;;;;;;;3.25;2.22;;;20.40;63.90;;;;;;5003717;28;20026;-86
2023/08/10 07:54:25;;;;;;;3.55;2.42;;;20.50;63.40;;;;;;5004373;28;20054;-85
2023/08/10 07:56:50;;;;;;;6.10;2.75;;;20.60;62.60;;;;;;5003338;28;20030;-86
2023/08/10 07:59:17;;;;;;;2.65;1.83;;;20.70;62.30;;;;;;5000249;28;20374;-76
2023/08/10 08:01:43;;;;;;;2.15;1.95;;;20.80;62.30;;;;;;4983290;28;20037;-75
2023/08/10 08:04:09;;;;;;;4.00;2.25;;;21.00;61.90;;;;;;4999385;28;20045;-78
2023/08/10 08:06:36;;;;;;;5.80;2.55;;;21.10;60.80;;;;;;5015895;28;20049;-78
2023/08/10 08:09:04;;;;;;;2.42;1.70;;;21.20;60.30;;;;;;4999541;28;20104;-75
2023/08/10 08:11:30;;;;;;;3.35;2.38;;;21.30;60.30;;;;;;4999243;28;20026;-77
2023/08/10 08:13:56;;;;;;;2.25;1.98;;;21.40;60.10;;;;;;4999278;28;20026;-84
2023/08/10 08:16:22;;;;;;;3.88;2.13;;;21.50;60.20;;;;;;4998882;28;20026;-82
2023/08/10 08:18:53;;;;;;;4.38;2.10;;;21.50;58.80;;;;;;5024818;28;20006;-80
2023/08/10 08:21:20;;;;;;;2.67;2.00;;;21.40;58.40;;;;;;5021537;28;20060;-87
2023/08/10 08:23:47;;;;;;;5.70;2.20;;;21.50;58.10;;;;;;5013100;28;20021;-87
2023/08/10 08:26:15;;;;;;;5.60;2.55;;;21.50;57.30;;;;;;5001448;28;20386;-89
2023/08/10 08:28:42;;;;;;;2.00;1.70;;;21.50;57.20;;;;;;5000823;28;20030;-90
2023/08/10 08:31:07;;;;;;;2.45;2.10;;;21.70;56.80;;;;;;5000336;28;20026;-90
2023/08/10 08:33:33;;;;;;;3.58;2.22;;;21.70;56.00;;;;;;5001387;28;20025;-89
2023/08/10 08:35:59;;;;;;;3.05;2.30;;;21.70;56.30;;;;;;5002525;28;20025;-89
2023/08/10 08:38:25;;;;;;;2.10;2.00;;;21.70;56.00;;;;;;4999675;28;20018;-81
2023/08/10 08:40:53;;;;;;;4.07;2.67;;;21.60;56.20;;;;;;4998882;28;20034;-76
2023/08/10 08:43:18;;;;;;;6.22;2.55;;;21.70;56.20;;;;;;4997272;28;20029;-84
2023/08/10 08:45:44;;;;;;;3.53;2.30;;;21.70;56.40;;;;;;4998334;28;20022;-80
2023/08/10 08:48:14;;;;;;;3.95;2.33;;;21.70;56.80;;;;;;4997984;28;20033;-82
2023/08/10 08:50:40;;;;;;;5.85;2.13;;;21.80;56.90;;;;;;5015237;28;20026;-79
2023/08/10 08:53:08;;;;;;;3.67;2.10;;;21.90;55.60;;;;;;5015857;28;20033;-83
2023/08/10 08:55:34;;;;;;;2.75;2.20;;;22.10;54.50;;;;;;4998725;28;20026;-89
2023/08/10 08:57:59;;;;;;;3.92;2.05;;;21.90;53.80;;;;;;4999115;28;20022;-83
2023/08/10 09:00:25;;;;;;;3.15;2.15;;;21.80;54.80;;;;;;4998310;28;20049;-82
2023/08/10 09:02:51;;;;;;;2.38;2.03;;;21.90;54.10;;;;;;4998253;28;20025;-82
2023/08/10 09:05:18;;;;;;;2.70;1.90;;;22.00;53.30;;;;;;5015191;28;20045;-84
2023/08/10 09:07:44;;;;;;;2.80;2.00;;;22.10;52.80;;;;;;4998453;28;20104;-76
2023/08/10 09:10:11;;;;;;;2.95;2.28;;;22.20;52.50;;;;;;4998306;28;20526;-74
2023/08/10 09:12:39;;;;;;;3.20;2.53;;;22.10;52.10;;;;;;4999488;28;20098;-82
2023/08/10 09:15:06;;;;;;;4.10;2.30;;;22.10;53.20;;;;;;5016217;28;20064;-77
2023/08/10 09:17:33;;;;;;;3.22;2.00;;;22.20;52.40;;;;;;5015345;28;20101;-76
2023/08/10 09:19:59;;;;;;;3.00;2.60;;;22.30;51.50;;;;;;4997688;28;20076;-77
2023/08/10 09:22:32;;;;;;;3.08;2.20;;;22.30;52.60;;;;;;4998152;28;20459;-82
2023/08/10 09:24:58;;;;;;;4.03;2.28;;;22.40;51.30;;;;;;4998001;28;20467;-78
2023/08/10 09:27:26;;;;;;;2.70;2.28;;;22.30;51.60;;;;;;4997472;28;20026;-75
2023/08/10 09:29:59;;;;;;;2.88;2.25;;;22.30;51.30;;;;;;5003807;28;20389;-89
2023/08/10 09:32:25;;;;;;;2.58;2.35;;;22.30;51.40;;;;;;5017120;28;20390;-76
2023/08/10 09:34:53;;;;;;;8.48;3.10;;;22.40;51.70;;;;;;5013054;28;20029;-78
2023/08/10 09:37:20;;;;;;;5.45;2.33;;;22.30;51.50;;;;;;5020415;28;20040;-74
2023/08/10 09:39:46;;;;;;;14.68;2.90;;;22.20;51.70;;;;;;5032362;28;20028;-75
2023/08/10 09:42:12;;;;;;;3.25;2.55;;;22.10;51.00;;;;;;5034866;28;20021;-77
2023/08/10 09:44:43;;;;;;;4.15;2.47;;;22.10;50.70;;;;;;5015614;28;20036;-75
2023/08/10 09:47:09;;;;;;;2.50;2.30;;;22.20;50.20;;;;;;5036741;28;20068;-75
2023/08/10 09:49:35;;;;;;;4.10;2.50;;;22.30;51.50;;;;;;5029483;28;20502;-76
2023/08/10 09:52:01;;;;;;;5.22;2.20;;;22.50;51.10;;;;;;5035028;28;20026;-76
2023/08/10 09:54:28;;;;;;;3.30;2.47;;;22.60;51.90;;;;;;5014584;28;20029;-79
2023/08/10 09:56:54;;;;;;;2.88;2.15;;;22.70;50.40;;;;;;5015825;28;20026;-78
2023/08/10 09:59:20;;;;;;;2.47;2.28;;;22.80;50.80;;;;;;5015394;28;20036;-77
2023/08/10 10:01:46;;;;;;;2.28;1.98;;;22.80;50.30;;;;;;5015427;28;20021;-77
2023/08/10 10:04:12;;;;;;;2.85;2.30;;;23.00;50.00;;;;;;5015205;28;20064;-78
2023/08/10 10:06:39;;;;;;;2.20;2.00;;;23.30;48.70;;;;;;5015686;28;20112;-75
2023/08/10 10:09:05;;;;;;;3.90;2.10;;;23.30;48.50;;;;;;4999344;28;20026;-78
2023/08/10 10:11:32;;;;;;;3.20;1.80;;;23.30;47.10;;;;;;5033147;28;20025;-78
2023/08/10 10:13:58;;;;;;;3.03;2.22;;;23.40;47.20;;;;;;5015219;28;20033;-77
2023/08/10 10:16:27;;;;;;;2.47;2.13;;;23.50;47.10;;;;;;5015675;28;20034;-80
2023/08/10 10:18:52;;;;;;;2.75;2.03;;;23.50;45.30;;;;;;4999088;28;20116;-78
2023/08/10 10:21:18;;;;;;;5.15;2.03;;;23.60;46.40;;;;;;5014839;28;20140;-77
2023/08/10 10:23:48;;;;;;;2.75;1.92;;;23.70;47.00;;;;;;5029281;28;20020;-74
2023/08/10 10:26:19;;;;;;;2.53;2.33;;;23.80;45.90;;;;;;5011230;28;20029;-81
2023/08/10 10:29:15;;;;;;;4.80;2.10;;;23.90;45.10;;;;;;4992224;28;20033;-76
2023/08/10 10:31:41;;;;;;;2.30;2.10;;;24.10;42.50;;;;;;5008436;28;20045;-78
2023/08/10 10:34:13;;;;;;;5.40;2.22;;;24.00;43.90;;;;;;5010364;28;20025;-75
2023/08/10 10:36:40;;;;;;;2.35;1.70;;;24.20;44.20;;;;;;5033087;28;20061;-77
2023/08/10 10:39:11;;;;;;;2.85;2.22;;;24.40;42.70;;;;;;5015327;28;20026;-75
2023/08/10 10:41:40;;;;;;;2.35;2.10;;;24.50;41.30;;;;;;5015271;28;20017;-76
2023/08/10 10:44:08;;;;;;;2.85;2.50;;;24.60;40.50;;;;;;5015227;28;20064;-74
2023/08/10 10:46:33;;;;;;;2.55;2.17;;;24.50;39.40;;;;;;5015216;28;20108;-76
2023/08/10 10:48:59;;;;;;;2.53;2.25;;;24.30;39.60;;;;;;5015084;28;20136;-76
2023/08/10 10:51:26;;;;;;;2.95;1.80;;;24.20;39.20;;;;;;5015260;28;20116;-75
2023/08/10 10:53:53;;;;;;;2.78;2.13;;;24.20;42.30;;;;;;5015137;28;20113;-75
2023/08/10 10:56:21;;;;;;;4.50;2.42;;;24.20;40.10;;;;;;5015448;28;20033;-75
2023/08/10 10:58:50;;;;;;;2.60;2.28;;;24.20;39.90;;;;;;5020797;28;20084;-77
2023/08/10 11:01:19;;;;;;;3.92;2.22;;;24.30;40.10;;;;;;5015123;28;20128;-77
2023/08/10 11:03:55;;;;;;;3.00;1.90;;;24.50;40.90;;;;;;5015461;28;20458;-77
2023/08/10 11:06:23;;;;;;;3.80;2.05;;;24.50;41.70;;;;;;5018375;28;20048;-77
2023/08/10 11:08:51;;;;;;;3.17;2.17;;;24.70;41.80;;;;;;5019106;28;20056;-76
2023/08/10 11:11:18;;;;;;;2.22;1.85;;;24.90;40.90;;;;;;5018837;28;20141;-77
2023/08/10 11:13:44;;;;;;;2.80;2.08;;;24.80;39.80;;;;;;5018942;28;20477;-76
2023/08/10 11:16:10;;;;;;;2.22;1.92;;;24.90;40.10;;;;;;5018956;28;20032;-76
2023/08/10 11:18:41;;;;;;;4.40;2.28;;;25.00;39.60;;;;;;5019280;28;20025;-76
2023/08/10 11:21:07;;;;;;;6.97;2.63;;;25.10;39.40;;;;;;5019747;28;20060;-75
2023/08/10 11:23:33;;;;;;;3.13;1.95;;;25.30;38.60;;;;;;5019589;28;20026;-78
2023/08/10 11:25:59;;;;;;;3.22;1.73;;;25.40;38.40;;;;;;5002943;28;20036;-75
2023/08/10 11:28:26;;;;;;;3.50;1.80;;;25.70;37.60;;;;;;5036700;28;20036;-81
2023/08/10 11:30:51;;;;;;;3.70;2.25;;;25.90;37.10;;;;;;5019278;28;20025;-76
2023/08/10 11:33:19;;;;;;;3.45;2.03;;;26.00;36.70;;;;;;5019504;28;20022;-79
2023/08/10 11:35:52;;;;;;;3.08;2.10;;;26.10;37.30;;;;;;5019901;28;20063;-81
2023/08/10 11:38:18;;;;;;;2.70;2.03;;;26.10;36.30;;;;;;5018582;28;20039;-72
2023/08/10 11:40:44;;;;;;;3.08;2.25;;;26.30;37.20;;;;;;5018050;28;20083;-72
2023/08/10 11:43:15;;;;;;;3.63;2.42;;;26.50;35.60;;;;;;5016800;28;20025;-73
2023/08/10 11:45:41;;;;;;;3.20;2.22;;;26.80;34.40;;;;;;5024590;28;20092;-72
2023/08/10 11:48:12;;;;;;;3.17;2.13;;;26.90;33.80;;;;;;5016169;28;20407;-71
2023/08/10 11:50:38;;;;;;;3.13;2.20;;;26.90;33.10;;;;;;5016104;28;20041;-72
2023/08/10 11:53:14;;;;;;;3.17;2.20;;;26.90;33.00;;;;;;5015922;28;20133;-71
2023/08/10 11:55:47;;;;;;;2.58;2.20;;;27.00;34.00;;;;;;5015832;28;20044;-71
2023/08/10 11:58:14;;;;;;;2.20;2.00;;;27.20;33.20;;;;;;5016060;28;20021;-71
2023/08/10 12:00:41;;;;;;;2.72;2.25;;;27.20;33.30;;;;;;5015819;28;20487;-72
2023/08/10 12:03:08;;;;;;;2.38;1.77;;;27.40;31.80;;;;;;5015952;28;20356;-72
2023/08/10 12:05:39;;;;;;;2.72;1.90;;;27.40;29.60;;;;;;5015477;28;20050;-73
2023/08/10 12:08:07;;;;;;;2.83;2.22;;;27.50;29.40;;;;;;5015696;28;20104;-71
2023/08/10 12:10:37;;;;;;;2.42;2.20;;;27.60;27.90;;;;;;5015764;28;20038;-74
2023/08/10 12:13:04;;;;;;;3.97;2.40;;;27.70;27.40;;;;;;5015568;28;20029;-72
2023/08/10 12:15:32;;;;;;;2.60;1.83;;;27.60;25.60;;;;;;5015622;28;20053;-75
2023/08/10 12:18:03;;;;;;;2.63;2.25;;;27.70;26.80;;;;;;5017364;28;20014;-73
2023/08/10 12:20:28;;;;;;;2.78;2.13;;;27.80;28.70;;;;;;5016013;28;20125;-77
2023/08/10 12:22:54;;;;;;;3.20;2.65;;;28.10;28.40;;;;;;5015610;28;20106;-74
2023/08/10 12:25:20;;;;;;;3.05;2.00;;;28.30;29.40;;;;;;5015575;28;20036;-72
2023/08/10 12:27:46;;;;;;;2.47;1.98;;;28.30;30.70;;;;;;5015347;28;20026;-71
2023/08/10 12:30:12;;;;;;;2.95;2.42;;;28.30;31.80;;;;;;5014783;28;20494;-72
2023/08/10 12:32:38;;;;;;;2.35;1.92;;;28.10;32.00;;;;;;5014595;28;20022;-72
2023/08/10 12:35:03;;;;;;;2.33;2.05;;;28.10;32.20;;;;;;5015124;28;20057;-71
2023/08/10 12:37:29;;;;;;;2.28;2.08;;;28.30;31.10;;;;;;5015204;28;20517;-71
2023/08/10 12:39:56;;;;;;;4.97;2.20;;;28.00;31.70;;;;;;5015079;28;20501;-71
2023/08/10 12:42:22;;;;;;;3.03;2.10;;;28.00;32.50;;;;;;5015078;28;20463;-71